sensor_id;sensor_type;location;lat;lon;timestamp;pressure;altitude;pressure_sealevel;temperature;humidity
32324;BME280;25666;44.350;9.222;2023-05-21T00:01:50;101155.84;;;17.60;100.00
32324;BME280;25666;44.350;9.222;2023-05-21T00:04:15;101137.41;;;17.63;100.00
32324;BME280;25666;44.350;9.222;2023-05-21T00:06:41;101132.28;;;17.76;100.00
32324;BME280;25666;44.350;9.222;2023-05-21T00:09:07;101147.19;;;17.80;100.00
32324;BME280;25666;44.350;9.222;2023-05-21T00:11:32;101137.09;;;17.75;100.00
32324;BME280;25666;44.350;9.222;2023-05-21T00:13:58;101143.50;;;17.72;100.00
32324;BME280;25666;44.350;9.222;2023-05-21T00:16:24;101138.31;;;17.78;100.00
32324;BME280;25666;44.350;9.222;2023-05-21T00:18:49;101139.59;;;17.87;100.00
32324;BME280;25666;44.350;9.222;2023-05-21T00:21:16;101136.78;;;17.87;100.00
32324;BME280;25666;44.350;9.222;2023-05-21T00:23:42;101135.53;;;17.81;100.00
32324;BME280;25666;44.350;9.222;2023-05-21T00:26:08;101147.13;;;17.73;100.00
32324;BME280;25666;44.350;9.222;2023-05-21T00:28:33;101132.66;;;17.74;100.00
32324;BME280;25666;44.350;9.222;2023-05-21T00:30:59;101147.41;;;17.60;100.00
32324;BME280;25666;44.350;9.222;2023-05-21T00:33:24;101130.59;;;17.67;100.00
32324;BME280;25666;44.350;9.222;2023-05-21T00:35:51;101126.94;;;17.63;100.00
32324;BME280;25666;44.350;9.222;2023-05-21T00:38:16;101124.06;;;17.56;100.00
32324;BME280;25666;44.350;9.222;2023-05-21T00:40:43;101136.00;;;17.46;100.00
32324;BME280;25666;44.350;9.222;2023-05-21T00:43:09;101126.66;;;17.39;100.00
32324;BME280;25666;44.350;9.222;2023-05-21T00:45:35;101124.81;;;17.53;100.00
32324;BME280;25666;44.350;9.222;2023-05-21T00:48:04;101124.75;;;17.46;100.00
32324;BME280;25666;44.350;9.222;2023-05-21T00:50:30;101119.47;;;17.45;100.00
32324;BME280;25666;44.350;9.222;2023-05-21T00:52:56;101112.28;;;17.47;100.00
32324;BME280;25666;44.350;9.222;2023-05-21T00:55:24;101108.38;;;17.55;100.00
32324;BME280;25666;44.350;9.222;2023-05-21T00:57:50;101108.50;;;17.70;100.00
32324;BME280;25666;44.350;9.222;2023-05-21T01:00:15;101112.09;;;17.67;100.00
32324;BME280;25666;44.350;9.222;2023-05-21T01:02:41;101118.91;;;17.65;100.00
32324;BME280;25666;44.350;9.222;2023-05-21T01:05:10;101094.66;;;18.05;100.00
32324;BME280;25666;44.350;9.222;2023-05-21T01:07:38;101102.69;;;18.03;100.00
32324;BME280;25666;44.350;9.222;2023-05-21T01:10:07;101105.91;;;18.01;100.00
32324;BME280;25666;44.350;9.222;2023-05-21T01:15:06;101098.63;;;17.93;100.00
32324;BME280;25666;44.350;9.222;2023-05-21T01:17:33;101109.84;;;17.90;100.00
32324;BME280;25666;44.350;9.222;2023-05-21T01:20:00;101106.28;;;17.96;100.00
32324;BME280;25666;44.350;9.222;2023-05-21T01:22:27;101105.41;;;17.85;100.00
32324;BME280;25666;44.350;9.222;2023-05-21T01:24:56;101094.16;;;17.92;100.00
32324;BME280;25666;44.350;9.222;2023-05-21T01:27:22;101104.22;;;17.90;100.00
32324;BME280;25666;44.350;9.222;2023-05-21T01:29:48;101097.38;;;17.87;100.00
32324;BME280;25666;44.350;9.222;2023-05-21T01:32:30;101096.91;;;17.78;100.00
32324;BME280;25666;44.350;9.222;2023-05-21T01:35:12;101105.41;;;17.85;100.00
32324;BME280;25666;44.350;9.222;2023-05-21T01:38:16;101096.84;;;17.71;100.00
32324;BME280;25666;44.350;9.222;2023-05-21T01:41:04;101093.31;;;17.81;100.00
32324;BME280;25666;44.350;9.222;2023-05-21T01:43:33;101097.66;;;17.72;100.00
32324;BME280;25666;44.350;9.222;2023-05-21T01:45:59;101093.19;;;17.67;100.00
32324;BME280;25666;44.350;9.222;2023-05-21T01:48:29;101083.94;;;17.70;100.00
32324;BME280;25666;44.350;9.222;2023-05-21T01:50:58;101086.59;;;17.52;100.00
32324;BME280;25666;44.350;9.222;2023-05-21T01:53:24;101086.16;;;17.47;100.00
32324;BME280;25666;44.350;9.222;2023-05-21T01:55:50;101078.56;;;17.54;100.00
32324;BME280;25666;44.350;9.222;2023-05-21T01:58:16;101088.72;;;17.62;100.00
32324;BME280;25666;44.350;9.222;2023-05-21T02:00:42;101087.88;;;17.58;100.00
32324;BME280;25666;44.350;9.222;2023-05-21T02:03:10;101078.56;;;17.54;100.00
32324;BME280;25666;44.350;9.222;2023-05-21T02:05:35;101083.38;;;17.50;100.00
32324;BME280;25666;44.350;9.222;2023-05-21T02:08:01;101076.03;;;17.42;100.00
32324;BME280;25666;44.350;9.222;2023-05-21T02:10:27;101076.09;;;17.46;100.00
32324;BME280;25666;44.350;9.222;2023-05-21T02:12:52;101075.34;;;17.52;100.00
32324;BME280;25666;44.350;9.222;2023-05-21T02:15:18;101068.81;;;17.45;100.00
32324;BME280;25666;44.350;9.222;2023-05-21T02:17:44;101066.47;;;17.50;100.00
32324;BME280;25666;44.350;9.222;2023-05-21T02:20:11;101072.94;;;17.54;100.00
32324;BME280;25666;44.350;9.222;2023-05-21T02:22:38;101065.41;;;17.62;100.00
32324;BME280;25666;44.350;9.222;2023-05-21T02:25:07;101063.41;;;17.62;100.00
32324;BME280;25666;44.350;9.222;2023-05-21T02:27:34;101065.34;;;17.55;100.00
32324;BME280;25666;44.350;9.222;2023-05-21T02:30:02;101058.94;;;17.61;100.00
32324;BME280;25666;44.350;9.222;2023-05-21T02:32:29;101066.00;;;17.45;100.00
32324;BME280;25666;44.350;9.222;2023-05-21T02:34:56;101066.78;;;17.38;100.00
32324;BME280;25666;44.350;9.222;2023-05-21T02:37:22;101070.53;;;17.53;100.00
32324;BME280;25666;44.350;9.222;2023-05-21T02:39:48;101057.59;;;17.48;100.00
32324;BME280;25666;44.350;9.222;2023-05-21T02:42:13;101057.34;;;17.64;100.00
32324;BME280;25666;44.350;9.222;2023-05-21T02:44:39;101051.38;;;17.69;100.00
32324;BME280;25666;44.350;9.222;2023-05-21T02:47:04;101050.97;;;17.71;100.00
32324;BME280;25666;44.350;9.222;2023-05-21T02:49:31;101055.38;;;17.68;100.00
32324;BME280;25666;44.350;9.222;2023-05-21T02:51:56;101060.13;;;17.57;100.00
32324;BME280;25666;44.350;9.222;2023-05-21T02:54:22;101058.16;;;17.64;100.00
32324;BME280;25666;44.350;9.222;2023-05-21T02:56:48;101045.31;;;17.63;100.00
32324;BME280;25666;44.350;9.222;2023-05-21T02:59:13;101050.94;;;17.63;100.00
32324;BME280;25666;44.350;9.222;2023-05-21T03:01:39;101048.50;;;17.62;100.00
32324;BME280;25666;44.350;9.222;2023-05-21T03:04:05;101047.28;;;17.59;100.00
32324;BME280;25666;44.350;9.222;2023-05-21T03:06:30;101050.56;;;17.69;100.00
32324;BME280;25666;44.350;9.222;2023-05-21T03:08:56;101050.38;;;17.47;100.00
32324;BME280;25666;44.350;9.222;2023-05-21T03:11:21;101051.53;;;17.43;100.00
32324;BME280;25666;44.350;9.222;2023-05-21T03:13:47;101048.72;;;17.43;100.00
32324;BME280;25666;44.350;9.222;2023-05-21T03:16:12;101056.53;;;17.60;100.00
32324;BME280;25666;44.350;9.222;2023-05-21T03:18:38;101062.25;;;17.71;100.00
32324;BME280;25666;44.350;9.222;2023-05-21T03:21:04;101058.00;;;17.47;100.00
32324;BME280;25666;44.350;9.222;2023-05-21T03:23:29;101063.75;;;17.57;100.00
32324;BME280;25666;44.350;9.222;2023-05-21T03:25:56;101064.03;;;17.49;100.00
32324;BME280;25666;44.350;9.222;2023-05-21T03:28:22;101062.00;;;17.46;100.00
32324;BME280;25666;44.350;9.222;2023-05-21T03:30:48;101064.03;;;17.49;100.00
32324;BME280;25666;44.350;9.222;2023-05-21T03:33:35;101060.78;;;17.43;100.00
32324;BME280;25666;44.350;9.222;2023-05-21T03:36:11;101062.34;;;17.37;100.00
32324;BME280;25666;44.350;9.222;2023-05-21T03:38:36;101061.56;;;17.40;100.00
32324;BME280;25666;44.350;9.222;2023-05-21T03:41:02;101064.28;;;17.30;100.00
32324;BME280;25666;44.350;9.222;2023-05-21T03:43:28;101046.75;;;17.98;100.00
32324;BME280;25666;44.350;9.222;2023-05-21T03:45:54;101033.81;;;18.73;100.00
32324;BME280;25666;44.350;9.222;2023-05-21T03:48:38;101048.13;;;18.32;100.00
32324;BME280;25666;44.350;9.222;2023-05-21T03:51:04;101042.31;;;17.97;100.00
32324;BME280;25666;44.350;9.222;2023-05-21T03:53:29;101045.13;;;17.97;100.00
32324;BME280;25666;44.350;9.222;2023-05-21T03:55:55;101061.84;;;17.72;100.00
32324;BME280;25666;44.350;9.222;2023-05-21T03:58:22;101060.66;;;17.77;100.00
32324;BME280;25666;44.350;9.222;2023-05-21T04:00:48;101084.28;;;17.61;100.00
32324;BME280;25666;44.350;9.222;2023-05-21T04:03:13;101061.53;;;17.84;100.00
32324;BME280;25666;44.350;9.222;2023-05-21T04:05:41;101061.25;;;18.03;100.00
32324;BME280;25666;44.350;9.222;2023-05-21T04:08:06;101057.66;;;18.06;100.00
32324;BME280;25666;44.350;9.222;2023-05-21T04:10:33;101056.13;;;18.23;100.00
32324;BME280;25666;44.350;9.222;2023-05-21T04:12:58;101077.34;;;18.03;100.00
32324;BME280;25666;44.350;9.222;2023-05-21T04:15:25;101062.44;;;18.02;100.00
32324;BME280;25666;44.350;9.222;2023-05-21T04:17:52;101066.88;;;18.00;100.00
32324;BME280;25666;44.350;9.222;2023-05-21T04:20:19;101073.72;;;18.02;100.00
32324;BME280;25666;44.350;9.222;2023-05-21T04:22:45;101085.19;;;17.73;100.00
32324;BME280;25666;44.350;9.222;2023-05-21T04:25:12;101078.66;;;17.61;100.00
32324;BME280;25666;44.350;9.222;2023-05-21T04:27:38;101079.09;;;17.63;100.00
32324;BME280;25666;44.350;9.222;2023-05-21T04:30:04;101080.88;;;17.42;100.00
32324;BME280;25666;44.350;9.222;2023-05-21T04:32:32;101082.44;;;17.39;100.00
32324;BME280;25666;44.350;9.222;2023-05-21T04:34:59;101091.63;;;17.33;100.00
32324;BME280;25666;44.350;9.222;2023-05-21T04:37:26;101086.50;;;17.42;100.00
32324;BME280;25666;44.350;9.222;2023-05-21T04:39:53;101090.97;;;17.46;100.00
32324;BME280;25666;44.350;9.222;2023-05-21T04:42:19;101093.78;;;17.46;100.00
32324;BME280;25666;44.350;9.222;2023-05-21T04:44:48;101080.84;;;17.38;100.00
32324;BME280;25666;44.350;9.222;2023-05-21T04:47:15;101083.78;;;17.52;100.00
32324;BME280;25666;44.350;9.222;2023-05-21T04:49:42;101090.50;;;17.37;100.00
32324;BME280;25666;44.350;9.222;2023-05-21T04:52:08;101072.78;;;17.37;100.00
32324;BME280;25666;44.350;9.222;2023-05-21T04:54:33;101083.69;;;17.42;100.00
32324;BME280;25666;44.350;9.222;2023-05-21T04:57:00;101086.75;;;17.26;100.00
32324;BME280;25666;44.350;9.222;2023-05-21T04:59:27;101086.50;;;17.42;100.00
32324;BME280;25666;44.350;9.222;2023-05-21T05:01:52;101083.31;;;17.43;100.00
32324;BME280;25666;44.350;9.222;2023-05-21T05:04:20;101083.38;;;17.50;100.00
32324;BME280;25666;44.350;9.222;2023-05-21T05:06:47;101081.19;;;17.33;100.00
32324;BME280;25666;44.350;9.222;2023-05-21T05:09:13;101074.06;;;17.43;100.00
32324;BME280;25666;44.350;9.222;2023-05-21T05:11:39;101086.22;;;17.54;100.00
32324;BME280;25666;44.350;9.222;2023-05-21T05:14:05;101080.97;;;17.52;100.00
32324;BME280;25666;44.350;9.222;2023-05-21T05:16:30;101079.31;;;17.44;100.00
32324;BME280;25666;44.350;9.222;2023-05-21T05:18:56;101087.22;;;17.32;100.00
32324;BME280;25666;44.350;9.222;2023-05-21T05:21:22;101088.84;;;17.36;100.00
32324;BME280;25666;44.350;9.222;2023-05-21T05:23:48;101085.97;;;17.29;100.00
32324;BME280;25666;44.350;9.222;2023-05-21T05:26:14;101077.22;;;17.38;100.00
32324;BME280;25666;44.350;9.222;2023-05-21T05:28:40;101085.19;;;17.32;100.00
32324;BME280;25666;44.350;9.222;2023-05-21T05:31:05;101079.19;;;17.34;100.00
32324;BME280;25666;44.350;9.222;2023-05-21T05:33:31;101074.28;;;17.24;100.00
32324;BME280;25666;44.350;9.222;2023-05-21T05:35:57;101083.19;;;17.33;100.00
32324;BME280;25666;44.350;9.222;2023-05-21T05:38:22;101079.13;;;17.27;100.00
32324;BME280;25666;44.350;9.222;2023-05-21T05:40:48;101072.47;;;17.45;100.00
32324;BME280;25666;44.350;9.222;2023-05-21T05:43:14;101075.34;;;17.52;100.00
32324;BME280;25666;44.350;9.222;2023-05-21T05:45:39;101083.88;;;17.59;100.00
32324;BME280;25666;44.350;9.222;2023-05-21T05:48:10;101082.66;;;17.60;100.00
32324;BME280;25666;44.350;9.222;2023-05-21T05:50:36;101080.25;;;17.59;100.00
32324;BME280;25666;44.350;9.222;2023-05-21T05:53:01;101094.34;;;17.62;100.00
32324;BME280;25666;44.350;9.222;2023-05-21T05:55:28;101083.88;;;17.59;100.00
32324;BME280;25666;44.350;9.222;2023-05-21T05:57:53;101075.50;;;17.67;100.00
32324;BME280;25666;44.350;9.222;2023-05-21T06:00:19;101077.56;;;17.33;100.00
32324;BME280;25666;44.350;9.222;2023-05-21T06:02:47;101078.66;;;17.61;100.00
32324;BME280;25666;44.350;9.222;2023-05-21T06:05:13;101081.47;;;17.61;100.00
32324;BME280;25666;44.350;9.222;2023-05-21T06:07:39;101072.25;;;17.64;100.00
32324;BME280;25666;44.350;9.222;2023-05-21T06:10:06;101083.97;;;17.74;100.00
32324;BME280;25666;44.350;9.222;2023-05-21T06:12:32;101074.69;;;17.66;100.00
32324;BME280;25666;44.350;9.222;2023-05-21T06:14:57;101073.78;;;17.55;100.00
32324;BME280;25666;44.350;9.222;2023-05-21T06:17:23;101070.28;;;17.69;100.00
32324;BME280;25666;44.350;9.222;2023-05-21T06:19:49;101071.53;;;17.75;100.00
32324;BME280;25666;44.350;9.222;2023-05-21T06:22:15;101071.97;;;17.80;100.00
32324;BME280;25666;44.350;9.222;2023-05-21T06:24:40;101071.53;;;17.75;100.00
32324;BME280;25666;44.350;9.222;2023-05-21T06:27:06;101064.66;;;17.69;100.00
32324;BME280;25666;44.350;9.222;2023-05-21T06:29:32;101070.34;;;17.76;100.00
32324;BME280;25666;44.350;9.222;2023-05-21T06:31:59;101061.53;;;17.84;100.00
32324;BME280;25666;44.350;9.222;2023-05-21T06:34:26;101047.09;;;17.93;100.00
32324;BME280;25666;44.350;9.222;2023-05-21T06:36:55;101062.81;;;17.94;100.00
32324;BME280;25666;44.350;9.222;2023-05-21T06:39:21;101063.66;;;18.01;100.00
32324;BME280;25666;44.350;9.222;2023-05-21T06:41:47;101057.28;;;18.11;100.00
32324;BME280;25666;44.350;9.222;2023-05-21T06:44:35;101063.31;;;18.10;100.00
32324;BME280;25666;44.350;9.222;2023-05-21T06:47:11;101070.91;;;18.02;100.00
32324;BME280;25666;44.350;9.222;2023-05-21T06:49:36;101068.97;;;18.13;100.00
32324;BME280;25666;44.350;9.222;2023-05-21T06:52:02;101060.16;;;18.22;100.00
32324;BME280;25666;44.350;9.222;2023-05-21T06:54:28;101070.25;;;18.30;100.00
32324;BME280;25666;44.350;9.222;2023-05-21T06:56:53;101071.47;;;18.33;100.00
32324;BME280;25666;44.350;9.222;2023-05-21T06:59:19;101059.00;;;18.34;100.00
32324;BME280;25666;44.350;9.222;2023-05-21T07:01:44;101068.66;;;18.36;100.00
32324;BME280;25666;44.350;9.222;2023-05-21T07:04:10;101061.91;;;18.48;100.00
32324;BME280;25666;44.350;9.222;2023-05-21T07:06:38;101065.56;;;18.55;100.00
32324;BME280;25666;44.350;9.222;2023-05-21T07:09:03;101071.22;;;18.59;100.00
32324;BME280;25666;44.350;9.222;2023-05-21T07:11:30;101061.19;;;18.65;100.00
32324;BME280;25666;44.350;9.222;2023-05-21T07:13:58;101061.56;;;18.67;100.00
32324;BME280;25666;44.350;9.222;2023-05-21T07:16:27;101058.38;;;18.72;100.00
32324;BME280;25666;44.350;9.222;2023-05-21T07:18:52;101061.19;;;18.65;100.00
32324;BME280;25666;44.350;9.222;2023-05-21T07:21:18;101070.47;;;18.73;100.00
32324;BME280;25666;44.350;9.222;2023-05-21T07:23:46;101063.66;;;18.84;100.00
32324;BME280;25666;44.350;9.222;2023-05-21T07:26:11;101075.38;;;18.93;100.00
32324;BME280;25666;44.350;9.222;2023-05-21T07:28:37;101076.59;;;18.99;100.00
32324;BME280;25666;44.350;9.222;2023-05-21T07:31:03;101081.81;;;18.94;100.00
32324;BME280;25666;44.350;9.222;2023-05-21T07:33:35;101079.41;;;19.03;100.00
32324;BME280;25666;44.350;9.222;2023-05-21T07:36:01;101065.31;;;19.06;100.00
32324;BME280;25666;44.350;9.222;2023-05-21T07:38:27;101070.97;;;19.06;100.00
32324;BME280;25666;44.350;9.222;2023-05-21T07:40:52;101076.63;;;19.13;100.00
32324;BME280;25666;44.350;9.222;2023-05-21T07:43:19;101080.69;;;19.23;100.00
32324;BME280;25666;44.350;9.222;2023-05-21T07:45:44;101077.84;;;19.26;100.00
32324;BME280;25666;44.350;9.222;2023-05-21T07:48:10;101075.47;;;19.57;100.00
32324;BME280;25666;44.350;9.222;2023-05-21T07:50:44;101071.81;;;19.70;100.00
32324;BME280;25666;44.350;9.222;2023-05-21T07:53:12;101078.69;;;19.94;100.00
32324;BME280;25666;44.350;9.222;2023-05-21T07:55:38;101068.97;;;20.02;100.00
32324;BME280;25666;44.350;9.222;2023-05-21T07:58:14;101065.22;;;20.51;100.00
32324;BME280;25666;44.350;9.222;2023-05-21T08:00:42;101065.97;;;20.66;100.00
32324;BME280;25666;44.350;9.222;2023-05-21T08:03:10;101067.63;;;20.49;100.00
32324;BME280;25666;44.350;9.222;2023-05-21T08:05:36;101072.13;;;20.36;100.00
32324;BME280;25666;44.350;9.222;2023-05-21T08:08:02;101068.88;;;20.45;100.00
32324;BME280;25666;44.350;9.222;2023-05-21T08:10:29;101070.91;;;20.48;100.00
32324;BME280;25666;44.350;9.222;2023-05-21T08:12:54;101064.25;;;20.86;100.00
32324;BME280;25666;44.350;9.222;2023-05-21T08:15:21;101071.72;;;21.21;100.00
32324;BME280;25666;44.350;9.222;2023-05-21T08:17:46;101063.13;;;21.83;100.00
32324;BME280;25666;44.350;9.222;2023-05-21T08:20:13;101053.66;;;22.37;100.00
32324;BME280;25666;44.350;9.222;2023-05-21T08:22:39;101063.25;;;22.81;100.00
32324;BME280;25666;44.350;9.222;2023-05-21T08:25:06;101048.88;;;22.95;100.00
32324;BME280;25666;44.350;9.222;2023-05-21T08:27:32;101046.06;;;23.18;100.00
32324;BME280;25666;44.350;9.222;2023-05-21T08:29:58;101040.81;;;23.43;100.00
32324;BME280;25666;44.350;9.222;2023-05-21T08:32:24;101048.63;;;23.86;100.00
32324;BME280;25666;44.350;9.222;2023-05-21T08:34:51;101040.03;;;24.09;100.00
32324;BME280;25666;44.350;9.222;2023-05-21T08:37:46;101033.47;;;24.35;100.00
32324;BME280;25666;44.350;9.222;2023-05-21T08:40:17;101038.50;;;24.47;100.00
32324;BME280;25666;44.350;9.222;2023-05-21T08:42:48;101040.38;;;24.54;100.00
32324;BME280;25666;44.350;9.222;2023-05-21T08:45:22;101036.66;;;24.57;100.00
32324;BME280;25666;44.350;9.222;2023-05-21T08:47:55;101035.03;;;24.56;100.00
32324;BME280;25666;44.350;9.222;2023-05-21T08:50:25;101032.81;;;24.47;100.00
32324;BME280;25666;44.350;9.222;2023-05-21T08:52:51;101042.00;;;24.55;100.00
32324;BME280;25666;44.350;9.222;2023-05-21T08:55:17;101038.19;;;24.62;100.00
32324;BME280;25666;44.350;9.222;2023-05-21T08:57:43;101037.47;;;24.58;100.00
32324;BME280;25666;44.350;9.222;2023-05-21T09:00:10;101038.91;;;24.66;100.00
32324;BME280;25666;44.350;9.222;2023-05-21T09:02:37;101036.00;;;24.69;100.00
32324;BME280;25666;44.350;9.222;2023-05-21T09:05:05;101038.38;;;24.90;100.00
32324;BME280;25666;44.350;9.222;2023-05-21T09:07:58;101038.38;;;24.90;100.00
32324;BME280;25666;44.350;9.222;2023-05-21T09:10:40;101032.25;;;24.92;100.00
32324;BME280;25666;44.350;9.222;2023-05-21T09:13:07;101041.03;;;24.81;100.00
32324;BME280;25666;44.350;9.222;2023-05-21T09:15:34;101037.38;;;24.81;100.00
32324;BME280;25666;44.350;9.222;2023-05-21T09:18:00;101039.06;;;25.14;100.00
32324;BME280;25666;44.350;9.222;2023-05-21T09:20:40;101052.84;;;25.16;100.00
32324;BME280;25666;44.350;9.222;2023-05-21T09:23:06;101045.47;;;25.34;100.00
32324;BME280;25666;44.350;9.222;2023-05-21T09:25:44;101048.53;;;25.43;100.00
32324;BME280;25666;44.350;9.222;2023-05-21T09:28:16;101041.41;;;25.35;100.00
32324;BME280;25666;44.350;9.222;2023-05-21T09:30:46;101037.56;;;25.42;100.00
32324;BME280;25666;44.350;9.222;2023-05-21T09:33:11;101047.63;;;25.30;98.38
32324;BME280;25666;44.350;9.222;2023-05-21T09:35:43;101046.66;;;25.37;100.00
32324;BME280;25666;44.350;9.222;2023-05-21T09:38:09;101040.97;;;25.53;100.00
32324;BME280;25666;44.350;9.222;2023-05-21T09:40:35;101046.59;;;25.56;100.00
32324;BME280;25666;44.350;9.222;2023-05-21T09:43:00;101061.69;;;25.21;99.32
32324;BME280;25666;44.350;9.222;2023-05-21T09:45:27;101054.38;;;25.20;99.82
32324;BME280;25666;44.350;9.222;2023-05-21T09:47:55;101050.41;;;25.34;100.00
32324;BME280;25666;44.350;9.222;2023-05-21T09:50:23;101053.84;;;25.25;100.00
32324;BME280;25666;44.350;9.222;2023-05-21T09:52:50;101052.44;;;25.17;95.60
32324;BME280;25666;44.350;9.222;2023-05-21T09:55:20;101046.56;;;25.40;97.84
32324;BME280;25666;44.350;9.222;2023-05-21T09:57:47;101047.09;;;25.35;93.70
32324;BME280;25666;44.350;9.222;2023-05-21T10:00:23;101043.94;;;25.49;97.89
32324;BME280;25666;44.350;9.222;2023-05-21T10:02:53;101043.94;;;25.49;97.47
32324;BME280;25666;44.350;9.222;2023-05-21T10:05:19;101046.41;;;25.64;99.24
32324;BME280;25666;44.350;9.222;2023-05-21T10:07:49;101043.13;;;25.49;98.51
32324;BME280;25666;44.350;9.222;2023-05-21T10:10:20;101039.47;;;25.65;98.72
32324;BME280;25666;44.350;9.222;2023-05-21T10:12:51;101040.69;;;25.80;95.62
32324;BME280;25666;44.350;9.222;2023-05-21T10:15:22;101046.75;;;25.82;84.78
32324;BME280;25666;44.350;9.222;2023-05-21T10:17:48;101056.97;;;25.95;88.43
32324;BME280;25666;44.350;9.222;2023-05-21T10:20:14;101052.19;;;25.60;91.82
32324;BME280;25666;44.350;9.222;2023-05-21T10:22:41;101046.06;;;25.78;91.79
32324;BME280;25666;44.350;9.222;2023-05-21T10:25:07;101041.81;;;25.98;97.43
32324;BME280;25666;44.350;9.222;2023-05-21T10:27:34;101041.63;;;26.05;100.00
32324;BME280;25666;44.350;9.222;2023-05-21T10:30:00;101029.59;;;25.98;99.02
32324;BME280;25666;44.350;9.222;2023-05-21T10:32:26;101056.97;;;25.95;88.62
32324;BME280;25666;44.350;9.222;2023-05-21T10:34:56;101043.34;;;26.03;88.99
32324;BME280;25666;44.350;9.222;2023-05-21T10:37:25;101040.91;;;26.18;91.04
32324;BME280;25666;44.350;9.222;2023-05-21T10:39:52;101045.47;;;25.99;87.21
32324;BME280;25666;44.350;9.222;2023-05-21T10:42:20;101048.66;;;26.17;94.93
32324;BME280;25666;44.350;9.222;2023-05-21T10:53:31;101039.91;;;26.24;93.09
32324;BME280;25666;44.350;9.222;2023-05-21T10:56:28;101040.06;;;26.33;94.02
32324;BME280;25666;44.350;9.222;2023-05-21T10:59:05;101036.47;;;26.00;89.40
32324;BME280;25666;44.350;9.222;2023-05-21T11:01:35;101031.72;;;26.10;94.63
32324;BME280;25666;44.350;9.222;2023-05-21T11:04:03;101017.75;;;25.99;88.86
32324;BME280;25666;44.350;9.222;2023-05-21T11:06:29;101016.53;;;26.13;94.04
32324;BME280;25666;44.350;9.222;2023-05-21T11:08:55;101016.50;;;26.00;100.00
32324;BME280;25666;44.350;9.222;2023-05-21T11:11:44;101019.94;;;25.79;89.58
32324;BME280;25666;44.350;9.222;2023-05-21T11:14:45;101017.63;;;25.74;87.34
32324;BME280;25666;44.350;9.222;2023-05-21T11:17:37;101014.91;;;25.99;85.06
32324;BME280;25666;44.350;9.222;2023-05-21T11:20:06;101019.69;;;26.19;85.61
32324;BME280;25666;44.350;9.222;2023-05-21T11:22:34;101023.94;;;26.10;90.11
32324;BME280;25666;44.350;9.222;2023-05-21T11:25:00;101017.63;;;26.19;84.30
32324;BME280;25666;44.350;9.222;2023-05-21T11:30:22;101019.88;;;26.40;100.00
32324;BME280;25666;44.350;9.222;2023-05-21T11:38:09;101012.19;;;26.25;86.49
32324;BME280;25666;44.350;9.222;2023-05-21T11:40:35;101016.84;;;26.19;89.10
32324;BME280;25666;44.350;9.222;2023-05-21T11:43:00;101012.38;;;26.18;81.98
32324;BME280;25666;44.350;9.222;2023-05-21T11:45:31;101006.91;;;26.23;82.38
32324;BME280;25666;44.350;9.222;2023-05-21T11:47:56;101007.38;;;26.22;98.54
32324;BME280;25666;44.350;9.222;2023-05-21T11:50:23;101000.09;;;26.04;100.00
32324;BME280;25666;44.350;9.222;2023-05-21T11:52:49;100990.47;;;25.98;100.00
32324;BME280;25666;44.350;9.222;2023-05-21T11:55:20;100997.47;;;26.10;100.00
32324;BME280;25666;44.350;9.222;2023-05-21T11:57:45;101000.53;;;26.03;84.50
32324;BME280;25666;44.350;9.222;2023-05-21T12:00:15;100997.03;;;26.12;90.26
32324;BME280;25666;44.350;9.222;2023-05-21T12:02:46;101014.09;;;25.99;96.65
32324;BME280;25666;44.350;9.222;2023-05-21T12:05:12;101012.06;;;25.99;80.61
32324;BME280;25666;44.350;9.222;2023-05-21T12:07:38;101012.03;;;26.16;86.38
32324;BME280;25666;44.350;9.222;2023-05-21T12:10:04;101003.97;;;26.10;92.48
32324;BME280;25666;44.350;9.222;2023-05-21T12:12:30;100998.22;;;25.98;88.09
32324;BME280;25666;44.350;9.222;2023-05-21T12:14:57;101014.44;;;26.01;100.00
32324;BME280;25666;44.350;9.222;2023-05-21T12:17:24;101008.00;;;25.84;100.00
32324;BME280;25666;44.350;9.222;2023-05-21T12:19:52;101015.84;;;25.80;100.00
32324;BME280;25666;44.350;9.222;2023-05-21T12:22:18;101005.56;;;25.83;100.00
32324;BME280;25666;44.350;9.222;2023-05-21T12:24:45;101015.00;;;25.96;100.00
32324;BME280;25666;44.350;9.222;2023-05-21T12:27:11;101015.59;;;26.03;100.00
32324;BME280;25666;44.350;9.222;2023-05-21T12:29:42;101008.34;;;26.15;100.00
32324;BME280;25666;44.350;9.222;2023-05-21T12:32:14;101004.31;;;26.13;100.00
32324;BME280;25666;44.350;9.222;2023-05-21T12:37:14;101004.53;;;26.22;100.00
32324;BME280;25666;44.350;9.222;2023-05-21T12:39:46;101008.44;;;26.28;100.00
32324;BME280;25666;44.350;9.222;2023-05-21T12:42:12;101007.38;;;26.22;100.00
32324;BME280;25666;44.350;9.222;2023-05-21T12:44:40;101008.63;;;26.21;100.00
32324;BME280;25666;44.350;9.222;2023-05-21T12:47:06;101008.91;;;26.39;100.00
32324;BME280;25666;44.350;9.222;2023-05-21T12:49:32;101008.31;;;26.31;100.00
32324;BME280;25666;44.350;9.222;2023-05-21T12:51:57;100999.78;;;26.15;100.00
32324;BME280;25666;44.350;9.222;2023-05-21T12:54:32;101008.34;;;26.15;100.00
32324;BME280;25666;44.350;9.222;2023-05-21T12:57:04;101003.84;;;26.30;100.00
32324;BME280;25666;44.350;9.222;2023-05-21T12:59:47;101013.19;;;26.18;100.00
32324;BME280;25666;44.350;9.222;2023-05-21T13:02:24;101004.44;;;26.09;100.00
32324;BME280;25666;44.350;9.222;2023-05-21T13:05:02;101001.41;;;26.16;100.00
32324;BME280;25666;44.350;9.222;2023-05-21T13:07:29;101005.66;;;26.24;100.00